Columbus, NM (88029)

6:10 AM MDT on August 21, 2014 (GMT -0600)
Sapphire IABR | Change Station
CLOSE
Current Station
Personal Weather Station
Location: Columbus, NM
Elevation: 4345 ft
Nearby Weather Stations

Elev 4345 ft 31.80 °N, 107.78 °W | Updated 6 minutes ago

Clear
Clear
63.2 °F
Feels Like 63.2 °F
N
0.0
Wind Variable Wind from NNW
Gusts 3.0 mph

Today
High -- | Low -- °F
--% Chance of Precip.
Yesterday
High -- | Low -- °F
Precip. -- in
6:39 AM 7:47 PM
Waning Crescent, 14% visible
Pressure 29.86 in
Visibility 10.0 miles
Clouds Clear
Dew Point 53 °F
Humidity 69%
Rainfall 0.00 in
Snow Depth Not available.
UV 0 out of 12
Pollen 6.60 out of 12
Air Quality Not available.
Flu Activity Not available.
METAR KDMN 211153Z AUTO 00000KT 10SM CLR 17/11 A3008 RMK AO2 SLP109 T01720111 10211 20172 53006

More Conditions Fewer Conditions

Pressure 29.86 in
Visibility 10.0 miles
Clouds Clear
Dew Point 53 °F
Humidity 69%
Rainfall 0.00 in
Snow Depth Not available.
UV 0 out of 12
Pollen 6.60 out of 12
Air Quality Not available.
Flu Activity Not available.
METAR KDMN 211153Z AUTO 00000KT 10SM CLR 17/11 A3008 RMK AO2 SLP109 T01720111 10211 20172 53006

More Conditions Fewer Conditions

10-Day Weather Forecast

Almanac

Astronomy

Aug. 21, 2014 Rise Set
Actual Time 6:39 AM MDT 7:47 PM MDT
Civil Twilight 6:13 AM MDT 8:12 PM MDT
Nautical Twilight 5:43 AM MDT 8:42 PM MDT
Astronomical Twilight 5:12 AM MDT 9:14 PM MDT
Moon 3:17 AM MDT 5:13 PM MDT
Length of Visible Light 13h 59m
Length of Day
13h 08m
Tomorrow will be 1m 47s shorter.
Waning Crescent, 14% of the Moon is Illuminated
Today
Waning Crescent
Aug 25
New
Sep 2
First Quarter
Sep 8
Full
Sep 15
Last Quarter

Today's Extremes

State Highs State Lows

Community

WunderPhotos

Upload Photos

1,745,885 photos uploaded!

Nearby

Snow Depth

Station Depth Elevation
McKnight Cabin 0 in 9240 ft
Silver Creek Divide 10 in 9000 ft
Frisco Divide 0 in 8000 ft
Sierra Blanca 1 in 10280 ft
Quemazon 1 in 9500 ft

Earthquake Activity

City Distance Mag. Time & Date
Lordsburg, New Mexico 99 miles 3.1 10:13 PM MDT
2014-08-15
Minimum magnitude displayed is 2.5.

Coastal Water Temperatures

Place Temperature
No Stations Reporting

Nearby Weather Stations